METAR AND TAF INFORMATION
METAR FOR KMEM
ADDS - METARS form results

(0342 UTC 14 December 2018)
Data provider http://aviationweather.gov/metar/data/
 
METAR text: KMEM 140335Z 11012KT 6SM -RA BR BKN013 OVC021 11/11 A2987 RMK AO2 P0018 T01110111
Conditions at: KMEM (MEMPHIS , TN, US) observed 0335 UTC 14 December 2018
Temperature: 11.1°C (52°F)
Dewpoint: 11.1°C (52°F) [RH = 100%]
Pressure (altimeter): 29.87 inches Hg (1011.6 mb)
Winds: from the ESE (110 degrees) at 14 MPH (12 knots; 6.2 m/s)
Visibility: 6 miles (10 km)
Ceiling: 1300 feet AGL
Clouds: broken clouds at 1300 feet AGL
overcast cloud deck at 2100 feet AGL
Weather: -RA BR  (light rain, mist)

METAR text: KMEM 140325Z 12012KT 4SM +RA BR SCT009 BKN015 OVC022 11/11 A2987 RMK AO2 P0014 T01110111
Conditions at: KMEM (MEMPHIS , TN, US) observed 0325 UTC 14 December 2018
Temperature: 11.1°C (52°F)
Dewpoint: 11.1°C (52°F) [RH = 100%]
Pressure (altimeter): 29.87 inches Hg (1011.6 mb)
Winds: from the ESE (120 degrees) at 14 MPH (12 knots; 6.2 m/s)
Visibility: 4 miles ( 6 km)
Ceiling: 1500 feet AGL
Clouds: scattered clouds at 900 feet AGL
broken clouds at 1500 feet AGL
overcast cloud deck at 2200 feet AGL
Weather: +RA BR  (heavy rain, mist)

METAR text: KMEM 140304Z 12012KT 3SM RA BR FEW010 BKN014 OVC026 12/11 A2987 RMK AO2 P0003 T01170111
Conditions at: KMEM (MEMPHIS , TN, US) observed 0304 UTC 14 December 2018
Temperature: 11.7°C (53°F)
Dewpoint: 11.1°C (52°F) [RH = 96%]
Pressure (altimeter): 29.87 inches Hg (1011.6 mb)
Winds: from the ESE (120 degrees) at 14 MPH (12 knots; 6.2 m/s)
Visibility: 3 miles ( 5 km)
Ceiling: 1400 feet AGL
Clouds: few clouds at 1000 feet AGL
broken clouds at 1400 feet AGL
overcast cloud deck at 2600 feet AGL
Weather: RA BR  (moderate rain, mist)

METAR text: KMEM 140254Z 12011KT 4SM RA BR SCT012 BKN019 OVC033 12/11 A2987 RMK AO2 SLP115 P0017 60020 T01170111 56009
Conditions at: KMEM (MEMPHIS , TN, US) observed 0254 UTC 14 December 2018
Temperature: 11.7°C (53°F)
Dewpoint: 11.1°C (52°F) [RH = 96%]
Pressure (altimeter): 29.87 inches Hg (1011.6 mb)
[Sea-level pressure: 1011.5 mb]
Winds: from the ESE (120 degrees) at 13 MPH (11 knots; 5.7 m/s)
Visibility: 4 miles ( 6 km)
Ceiling: 1900 feet AGL
Clouds: scattered clouds at 1200 feet AGL
broken clouds at 1900 feet AGL
overcast cloud deck at 3300 feet AGL
Weather: RA BR  (moderate rain, mist)

Forecast for: KMEM (MEMPHIS , TN, US)
Text: KMEM 140259Z 1403/1506 12011KT 4SM -SHRA BR OVC015 WS020/17045KT
Forecast period: 0300 to 0900 UTC 14 December 2018
Forecast type: FROM: standard forecast or significant change
Winds: from the ESE (120 degrees) at 13 MPH (11 knots; 5.7 m/s)
Visibility: 4 miles (6 km)
Ceiling: 1500 feet AGL
Clouds: overcast cloud deck at 1500 feet AGL
Wind Shear: at 2000 feet ( 610 m) AGL, from the S (170 degrees) at 52 MPH (45 knots; 23.4 m/s)
Weather: -SHRA BR  (light rain showers, mist)
Text: FM140900 09008KT 4SM -SHRA BR OVC007
Forecast period: 0900 to 1500 UTC 14 December 2018
Forecast type: FROM: standard forecast or significant change
Winds: from the E (90 degrees) at 9 MPH (8 knots; 4.1 m/s)
Visibility: 4 miles (6 km)
Ceiling: 700 feet AGL
Clouds: overcast cloud deck at 700 feet AGL
Weather: -SHRA BR  (light rain showers, mist)
Text: FM141500 07010KT 4SM -SHRA VCTS OVC009CB
Forecast period: 1500 UTC 14 December 2018 to 0600 UTC 15 December 2018
Forecast type: FROM: standard forecast or significant change
Winds: from the ENE (70 degrees) at 12 MPH (10 knots; 5.1 m/s)
Visibility: 4 miles (6 km)
Ceiling: 900 feet AGL
Clouds: overcast cloud deck at 900 feet AGL
Weather: -SHRA VCTS  (light rain showers, thunderstorm in vicinity)

 AIRPORT MAP

 RUNWAY INFORMATION
Runway 09 Runway length 8946 ft Runway width 150 ft
Runway elevation 253 ft Runway displaced threshold 0 ft Runway heading 92
Runway 27 Runway length 8946 ft Runway width 150 ft
Runway elevation 292 ft Runway displaced threshold 0 ft Runway heading 272
Runway 18C Runway length 11120 ft Runway width 150 ft
Runway elevation 271 ft Runway displaced threshold 0 ft Runway heading 179
Runway 36C Runway length 11120 ft Runway width 150 ft
Runway elevation 341 ft Runway displaced threshold 0 ft Runway heading 359
Runway 18L Runway length 9000 ft Runway width 150 ft
Runway elevation 278 ft Runway displaced threshold 0 ft Runway heading 179
Runway 36R Runway length 9000 ft Runway width 150 ft
Runway elevation 335 ft Runway displaced threshold 0 ft Runway heading 359
Runway 18R Runway length 9320 ft Runway width 150 ft
Runway elevation 288 ft Runway displaced threshold 0 ft Runway heading 179
Runway 36L Runway length 9320 ft Runway width 150 ft
Runway elevation 321 ft Runway displaced threshold 0 ft Runway heading 359

 AIRPORT FREQUENCIES
Type APP Name APP Frequency 33.83 MHZ
Type APP Name APP Frequency 119.1 MHZ
Type ATIS Name ATIS Frequency 127.75 MHZ
Type CLD Name CLNC DEL Frequency 125.2 MHZ
Type DEP Name DEP Frequency 124.15 MHZ
Type GND Name GND Frequency 121.65 MHZ
Type POST Name ANG COMD P Frequency 138.95 MHZ
Type RDO Name JACKSON RD Frequency 122.2 MHZ
Type TWR Name TWR Frequency 118.3 MHZ
Type UNIC Name UNICOM Frequency 122.95 MHZ

 AIRPORT NEAR NAVIGATION AIDS
Type NDB Name Elvis Frequency 287 KHZ
Type VORTAC Name Memphis Frequency 117500 KHZ